sensor_id;sensor_type;location;lat;lon;timestamp;temperature;humidity
1538;DHT22;12022;52.266;10.522;2023-03-16T00:01:43;2.00;99.90
1538;DHT22;12022;52.266;10.522;2023-03-16T00:04:10;2.00;99.90
1538;DHT22;12022;52.266;10.522;2023-03-16T00:06:37;1.90;99.90
1538;DHT22;12022;52.266;10.522;2023-03-16T00:09:04;2.10;99.90
1538;DHT22;12022;52.266;10.522;2023-03-16T00:11:31;2.10;99.90
1538;DHT22;12022;52.266;10.522;2023-03-16T00:13:58;1.90;99.90
1538;DHT22;12022;52.266;10.522;2023-03-16T00:16:25;1.90;99.90
1538;DHT22;12022;52.266;10.522;2023-03-16T00:18:52;1.90;99.90
1538;DHT22;12022;52.266;10.522;2023-03-16T00:21:19;2.10;99.90
1538;DHT22;12022;52.266;10.522;2023-03-16T00:23:46;1.90;99.90
1538;DHT22;12022;52.266;10.522;2023-03-16T00:26:13;2.00;99.90
1538;DHT22;12022;52.266;10.522;2023-03-16T00:28:40;1.80;99.90
1538;DHT22;12022;52.266;10.522;2023-03-16T00:31:09;1.90;99.90
1538;DHT22;12022;52.266;10.522;2023-03-16T00:33:41;2.00;99.90
1538;DHT22;12022;52.266;10.522;2023-03-16T00:36:11;1.90;99.90
1538;DHT22;12022;52.266;10.522;2023-03-16T00:38:40;1.80;99.90
1538;DHT22;12022;52.266;10.522;2023-03-16T00:41:13;1.70;99.90
1538;DHT22;12022;52.266;10.522;2023-03-16T00:43:41;1.70;99.90
1538;DHT22;12022;52.266;10.522;2023-03-16T00:46:12;1.70;99.90
1538;DHT22;12022;52.266;10.522;2023-03-16T00:48:43;1.90;99.90
1538;DHT22;12022;52.266;10.522;2023-03-16T00:51:13;1.70;99.90
1538;DHT22;12022;52.266;10.522;2023-03-16T00:53:42;1.70;99.90
1538;DHT22;12022;52.266;10.522;2023-03-16T00:56:11;1.90;99.90
1538;DHT22;12022;52.266;10.522;2023-03-16T00:58:40;1.70;99.90
1538;DHT22;12022;52.266;10.522;2023-03-16T01:01:17;1.70;99.90
1538;DHT22;12022;52.266;10.522;2023-03-16T01:03:45;1.70;99.90
1538;DHT22;12022;52.266;10.522;2023-03-16T01:06:15;1.80;99.90
1538;DHT22;12022;52.266;10.522;2023-03-16T01:08:43;1.70;99.90
1538;DHT22;12022;52.266;10.522;2023-03-16T01:11:16;1.70;99.90
1538;DHT22;12022;52.266;10.522;2023-03-16T01:13:43;1.80;99.90
1538;DHT22;12022;52.266;10.522;2023-03-16T01:16:13;1.80;99.90
1538;DHT22;12022;52.266;10.522;2023-03-16T01:18:40;1.60;99.90
1538;DHT22;12022;52.266;10.522;2023-03-16T01:21:09;1.60;99.90
1538;DHT22;12022;52.266;10.522;2023-03-16T01:23:39;1.60;99.90
1538;DHT22;12022;52.266;10.522;2023-03-16T01:26:06;1.60;99.90
1538;DHT22;12022;52.266;10.522;2023-03-16T01:28:34;1.70;99.90
1538;DHT22;12022;52.266;10.522;2023-03-16T01:31:04;1.60;99.90
1538;DHT22;12022;52.266;10.522;2023-03-16T01:33:32;1.70;99.90
1538;DHT22;12022;52.266;10.522;2023-03-16T01:36:04;1.60;99.90
1538;DHT22;12022;52.266;10.522;2023-03-16T01:38:32;1.60;99.90
1538;DHT22;12022;52.266;10.522;2023-03-16T01:40:59;1.70;99.90
1538;DHT22;12022;52.266;10.522;2023-03-16T01:43:28;1.70;99.90
1538;DHT22;12022;52.266;10.522;2023-03-16T01:46:09;1.50;99.90
1538;DHT22;12022;52.266;10.522;2023-03-16T01:48:48;1.50;99.90
1538;DHT22;12022;52.266;10.522;2023-03-16T01:51:19;1.70;99.90
1538;DHT22;12022;52.266;10.522;2023-03-16T01:53:52;1.70;99.90
1538;DHT22;12022;52.266;10.522;2023-03-16T01:56:41;1.50;99.90
1538;DHT22;12022;52.266;10.522;2023-03-16T01:59:13;1.40;99.90
1538;DHT22;12022;52.266;10.522;2023-03-16T02:01:41;1.50;99.90
1538;DHT22;12022;52.266;10.522;2023-03-16T02:04:23;1.60;99.90
1538;DHT22;12022;52.266;10.522;2023-03-16T02:06:54;1.50;99.90
1538;DHT22;12022;52.266;10.522;2023-03-16T02:09:23;1.50;99.90
1538;DHT22;12022;52.266;10.522;2023-03-16T02:11:52;1.40;99.90
1538;DHT22;12022;52.266;10.522;2023-03-16T02:14:20;1.50;99.90
1538;DHT22;12022;52.266;10.522;2023-03-16T02:16:48;1.30;99.90
1538;DHT22;12022;52.266;10.522;2023-03-16T02:19:29;1.50;99.90
1538;DHT22;12022;52.266;10.522;2023-03-16T02:22:03;1.40;99.90
1538;DHT22;12022;52.266;10.522;2023-03-16T02:24:30;1.40;99.90
1538;DHT22;12022;52.266;10.522;2023-03-16T02:27:04;1.20;99.90
1538;DHT22;12022;52.266;10.522;2023-03-16T02:32:20;1.40;99.90
1538;DHT22;12022;52.266;10.522;2023-03-16T02:34:48;1.50;99.90
1538;DHT22;12022;52.266;10.522;2023-03-16T02:37:15;1.20;99.90
1538;DHT22;12022;52.266;10.522;2023-03-16T02:39:42;1.20;99.90
1538;DHT22;12022;52.266;10.522;2023-03-16T02:42:16;1.30;99.90
1538;DHT22;12022;52.266;10.522;2023-03-16T02:44:49;1.30;99.90
1538;DHT22;12022;52.266;10.522;2023-03-16T02:47:42;1.20;99.90
1538;DHT22;12022;52.266;10.522;2023-03-16T02:50:11;1.30;99.90
1538;DHT22;12022;52.266;10.522;2023-03-16T02:55:41;1.20;99.90
1538;DHT22;12022;52.266;10.522;2023-03-16T02:58:14;1.20;99.90
1538;DHT22;12022;52.266;10.522;2023-03-16T03:00:48;1.20;99.90
1538;DHT22;12022;52.266;10.522;2023-03-16T03:03:21;1.20;99.90
1538;DHT22;12022;52.266;10.522;2023-03-16T03:05:53;1.20;99.90
1538;DHT22;12022;52.266;10.522;2023-03-16T03:08:24;1.20;99.90
1538;DHT22;12022;52.266;10.522;2023-03-16T03:10:56;1.20;99.90
1538;DHT22;12022;52.266;10.522;2023-03-16T03:13:28;1.20;99.90
1538;DHT22;12022;52.266;10.522;2023-03-16T03:16:01;1.10;99.90
1538;DHT22;12022;52.266;10.522;2023-03-16T03:18:32;1.20;99.90
1538;DHT22;12022;52.266;10.522;2023-03-16T03:24:00;1.10;99.90
1538;DHT22;12022;52.266;10.522;2023-03-16T03:26:31;1.10;99.90
1538;DHT22;12022;52.266;10.522;2023-03-16T03:38:11;1.00;99.90
1538;DHT22;12022;52.266;10.522;2023-03-16T03:43:46;1.10;99.90
1538;DHT22;12022;52.266;10.522;2023-03-16T03:46:17;1.10;99.90
1538;DHT22;12022;52.266;10.522;2023-03-16T03:48:49;1.10;99.90
1538;DHT22;12022;52.266;10.522;2023-03-16T03:51:27;1.10;99.90
1538;DHT22;12022;52.266;10.522;2023-03-16T03:56:53;1.10;99.90
1538;DHT22;12022;52.266;10.522;2023-03-16T03:59:27;1.00;99.90
1538;DHT22;12022;52.266;10.522;2023-03-16T04:01:59;1.00;99.90
1538;DHT22;12022;52.266;10.522;2023-03-16T04:04:31;1.00;99.90
1538;DHT22;12022;52.266;10.522;2023-03-16T04:07:03;1.00;99.90
1538;DHT22;12022;52.266;10.522;2023-03-16T04:09:34;1.00;99.90
1538;DHT22;12022;52.266;10.522;2023-03-16T04:12:06;0.90;99.90
1538;DHT22;12022;52.266;10.522;2023-03-16T04:26:49;1.00;99.90
1538;DHT22;12022;52.266;10.522;2023-03-16T04:35:14;1.00;99.90
1538;DHT22;12022;52.266;10.522;2023-03-16T04:40:39;1.00;99.90
1538;DHT22;12022;52.266;10.522;2023-03-16T04:43:12;1.00;99.90
1538;DHT22;12022;52.266;10.522;2023-03-16T04:45:45;1.00;99.90
1538;DHT22;12022;52.266;10.522;2023-03-16T04:48:16;0.90;99.90
1538;DHT22;12022;52.266;10.522;2023-03-16T04:50:47;0.70;99.90
1538;DHT22;12022;52.266;10.522;2023-03-16T04:53:17;0.70;99.90
1538;DHT22;12022;52.266;10.522;2023-03-16T04:55:47;0.90;99.90
1538;DHT22;12022;52.266;10.522;2023-03-16T04:58:20;0.90;99.90
1538;DHT22;12022;52.266;10.522;2023-03-16T05:00:52;0.90;99.90
1538;DHT22;12022;52.266;10.522;2023-03-16T05:03:23;0.80;99.90
1538;DHT22;12022;52.266;10.522;2023-03-16T05:05:50;1.20;99.90
1538;DHT22;12022;52.266;10.522;2023-03-16T05:08:17;1.10;99.90
1538;DHT22;12022;52.266;10.522;2023-03-16T05:10:44;0.90;99.90
1538;DHT22;12022;52.266;10.522;2023-03-16T05:13:13;0.90;99.90
1538;DHT22;12022;52.266;10.522;2023-03-16T05:15:40;0.90;99.90
1538;DHT22;12022;52.266;10.522;2023-03-16T05:18:07;0.90;99.90
1538;DHT22;12022;52.266;10.522;2023-03-16T05:20:34;0.90;99.90
1538;DHT22;12022;52.266;10.522;2023-03-16T05:23:01;0.90;99.90
1538;DHT22;12022;52.266;10.522;2023-03-16T05:25:28;0.90;99.90
1538;DHT22;12022;52.266;10.522;2023-03-16T05:27:58;0.90;99.90
1538;DHT22;12022;52.266;10.522;2023-03-16T05:30:25;1.00;99.90
1538;DHT22;12022;52.266;10.522;2023-03-16T05:32:53;1.00;99.90
1538;DHT22;12022;52.266;10.522;2023-03-16T05:35:22;1.00;99.90
1538;DHT22;12022;52.266;10.522;2023-03-16T05:37:50;1.00;99.90
1538;DHT22;12022;52.266;10.522;2023-03-16T05:40:17;1.00;99.90
1538;DHT22;12022;52.266;10.522;2023-03-16T05:42:45;1.10;99.90
1538;DHT22;12022;52.266;10.522;2023-03-16T05:45:14;1.10;99.90
1538;DHT22;12022;52.266;10.522;2023-03-16T05:47:42;1.10;99.90
1538;DHT22;12022;52.266;10.522;2023-03-16T05:50:11;1.10;99.90
1538;DHT22;12022;52.266;10.522;2023-03-16T05:52:39;1.20;99.90
1538;DHT22;12022;52.266;10.522;2023-03-16T05:55:07;1.20;99.90
1538;DHT22;12022;52.266;10.522;2023-03-16T05:57:35;1.20;99.90
1538;DHT22;12022;52.266;10.522;2023-03-16T06:00:04;1.20;99.90
1538;DHT22;12022;52.266;10.522;2023-03-16T06:02:43;1.30;99.90
1538;DHT22;12022;52.266;10.522;2023-03-16T06:05:10;1.30;99.90
1538;DHT22;12022;52.266;10.522;2023-03-16T06:07:37;1.30;99.90
1538;DHT22;12022;52.266;10.522;2023-03-16T06:10:05;1.40;99.90
1538;DHT22;12022;52.266;10.522;2023-03-16T06:12:32;1.40;99.90
1538;DHT22;12022;52.266;10.522;2023-03-16T06:15:01;1.60;99.90
1538;DHT22;12022;52.266;10.522;2023-03-16T06:17:28;1.60;99.90
1538;DHT22;12022;52.266;10.522;2023-03-16T06:19:55;1.60;99.90
1538;DHT22;12022;52.266;10.522;2023-03-16T06:22:22;1.70;99.90
1538;DHT22;12022;52.266;10.522;2023-03-16T06:24:51;2.20;99.90
1538;DHT22;12022;52.266;10.522;2023-03-16T06:27:18;3.00;99.90
1538;DHT22;12022;52.266;10.522;2023-03-16T06:29:46;4.40;99.90
1538;DHT22;12022;52.266;10.522;2023-03-16T06:32:13;5.70;99.90
1538;DHT22;12022;52.266;10.522;2023-03-16T06:34:40;7.00;99.90
1538;DHT22;12022;52.266;10.522;2023-03-16T06:37:07;8.10;99.90
1538;DHT22;12022;52.266;10.522;2023-03-16T06:39:34;9.20;99.90
1538;DHT22;12022;52.266;10.522;2023-03-16T06:42:01;10.10;99.90
1538;DHT22;12022;52.266;10.522;2023-03-16T06:44:30;11.00;99.90
1538;DHT22;12022;52.266;10.522;2023-03-16T06:46:57;11.60;99.90
1538;DHT22;12022;52.266;10.522;2023-03-16T06:49:24;11.40;99.90
1538;DHT22;12022;52.266;10.522;2023-03-16T06:51:51;10.60;99.90
1538;DHT22;12022;52.266;10.522;2023-03-16T06:54:18;9.90;99.90
1538;DHT22;12022;52.266;10.522;2023-03-16T06:56:45;9.30;99.90
1538;DHT22;12022;52.266;10.522;2023-03-16T06:59:12;8.90;99.90
1538;DHT22;12022;52.266;10.522;2023-03-16T07:01:39;8.70;99.90
1538;DHT22;12022;52.266;10.522;2023-03-16T07:04:06;8.70;99.90
1538;DHT22;12022;52.266;10.522;2023-03-16T07:06:33;8.30;99.90
1538;DHT22;12022;52.266;10.522;2023-03-16T07:09:01;8.20;99.90
1538;DHT22;12022;52.266;10.522;2023-03-16T07:11:30;8.10;99.90
1538;DHT22;12022;52.266;10.522;2023-03-16T07:13:58;8.10;99.90
1538;DHT22;12022;52.266;10.522;2023-03-16T07:16:26;8.00;99.90
1538;DHT22;12022;52.266;10.522;2023-03-16T07:18:53;8.00;99.90
1538;DHT22;12022;52.266;10.522;2023-03-16T07:21:20;8.20;99.90
1538;DHT22;12022;52.266;10.522;2023-03-16T07:23:48;8.10;99.90
1538;DHT22;12022;52.266;10.522;2023-03-16T07:26:15;8.10;99.90
1538;DHT22;12022;52.266;10.522;2023-03-16T07:28:42;8.10;99.90
1538;DHT22;12022;52.266;10.522;2023-03-16T07:31:09;8.10;99.90
1538;DHT22;12022;52.266;10.522;2023-03-16T07:33:36;8.20;99.90
1538;DHT22;12022;52.266;10.522;2023-03-16T07:36:03;8.30;99.90
1538;DHT22;12022;52.266;10.522;2023-03-16T07:38:32;8.30;99.90
1538;DHT22;12022;52.266;10.522;2023-03-16T07:40:59;8.40;99.90
1538;DHT22;12022;52.266;10.522;2023-03-16T07:43:27;8.40;99.90
1538;DHT22;12022;52.266;10.522;2023-03-16T07:45:54;8.40;99.90
1538;DHT22;12022;52.266;10.522;2023-03-16T07:48:22;8.50;99.90
1538;DHT22;12022;52.266;10.522;2023-03-16T07:50:49;8.60;99.90
1538;DHT22;12022;52.266;10.522;2023-03-16T07:53:16;8.60;99.90
1538;DHT22;12022;52.266;10.522;2023-03-16T07:55:43;8.60;99.90
1538;DHT22;12022;52.266;10.522;2023-03-16T07:58:11;8.60;99.90
1538;DHT22;12022;52.266;10.522;2023-03-16T08:00:38;8.70;99.90
1538;DHT22;12022;52.266;10.522;2023-03-16T08:03:05;8.80;99.90
1538;DHT22;12022;52.266;10.522;2023-03-16T08:05:34;8.80;99.90
1538;DHT22;12022;52.266;10.522;2023-03-16T08:08:01;8.60;99.90
1538;DHT22;12022;52.266;10.522;2023-03-16T08:10:29;8.70;99.90
1538;DHT22;12022;52.266;10.522;2023-03-16T08:12:58;8.40;99.90
1538;DHT22;12022;52.266;10.522;2023-03-16T08:15:25;8.30;99.90
1538;DHT22;12022;52.266;10.522;2023-03-16T08:17:52;8.20;99.90
1538;DHT22;12022;52.266;10.522;2023-03-16T08:20:19;8.10;99.90
1538;DHT22;12022;52.266;10.522;2023-03-16T08:22:46;8.00;99.90
1538;DHT22;12022;52.266;10.522;2023-03-16T08:25:15;7.90;99.90
1538;DHT22;12022;52.266;10.522;2023-03-16T08:27:42;7.80;99.90
1538;DHT22;12022;52.266;10.522;2023-03-16T08:30:11;7.90;99.90
1538;DHT22;12022;52.266;10.522;2023-03-16T08:32:39;7.70;99.90
1538;DHT22;12022;52.266;10.522;2023-03-16T08:35:15;7.70;99.90
1538;DHT22;12022;52.266;10.522;2023-03-16T08:37:42;7.70;99.90
1538;DHT22;12022;52.266;10.522;2023-03-16T08:40:10;7.60;99.90
1538;DHT22;12022;52.266;10.522;2023-03-16T08:42:40;7.60;99.90
1538;DHT22;12022;52.266;10.522;2023-03-16T08:45:08;7.80;99.90
1538;DHT22;12022;52.266;10.522;2023-03-16T08:47:39;7.60;99.90
1538;DHT22;12022;52.266;10.522;2023-03-16T08:50:07;7.60;99.90
1538;DHT22;12022;52.266;10.522;2023-03-16T08:52:34;7.50;99.90
1538;DHT22;12022;52.266;10.522;2023-03-16T08:55:04;7.70;99.90
1538;DHT22;12022;52.266;10.522;2023-03-16T08:57:33;7.50;99.90
1538;DHT22;12022;52.266;10.522;2023-03-16T09:00:00;7.50;99.90
1538;DHT22;12022;52.266;10.522;2023-03-16T09:02:31;7.60;99.90
1538;DHT22;12022;52.266;10.522;2023-03-16T09:04:58;7.50;99.90
1538;DHT22;12022;52.266;10.522;2023-03-16T09:07:25;7.60;99.90
1538;DHT22;12022;52.266;10.522;2023-03-16T09:09:52;7.60;99.90
1538;DHT22;12022;52.266;10.522;2023-03-16T09:12:19;7.70;99.90
1538;DHT22;12022;52.266;10.522;2023-03-16T09:14:47;7.60;99.90
1538;DHT22;12022;52.266;10.522;2023-03-16T09:17:14;7.90;99.90
1538;DHT22;12022;52.266;10.522;2023-03-16T09:19:41;7.70;99.90
1538;DHT22;12022;52.266;10.522;2023-03-16T09:22:19;7.70;99.90
1538;DHT22;12022;52.266;10.522;2023-03-16T09:24:47;7.80;99.90
1538;DHT22;12022;52.266;10.522;2023-03-16T09:27:15;7.90;99.90
1538;DHT22;12022;52.266;10.522;2023-03-16T09:29:42;8.00;99.90
1538;DHT22;12022;52.266;10.522;2023-03-16T09:32:09;8.00;99.90
1538;DHT22;12022;52.266;10.522;2023-03-16T09:34:36;8.10;99.90
1538;DHT22;12022;52.266;10.522;2023-03-16T09:37:04;8.10;99.90
1538;DHT22;12022;52.266;10.522;2023-03-16T09:39:31;8.30;99.90
1538;DHT22;12022;52.266;10.522;2023-03-16T09:42:18;8.50;99.90
1538;DHT22;12022;52.266;10.522;2023-03-16T09:45:02;8.60;99.90
1538;DHT22;12022;52.266;10.522;2023-03-16T09:47:33;8.70;99.90
1538;DHT22;12022;52.266;10.522;2023-03-16T09:50:07;9.00;99.90
1538;DHT22;12022;52.266;10.522;2023-03-16T09:53:20;8.90;99.90
1538;DHT22;12022;52.266;10.522;2023-03-16T09:55:52;9.00;99.90
1538;DHT22;12022;52.266;10.522;2023-03-16T10:05:06;9.30;99.90
1538;DHT22;12022;52.266;10.522;2023-03-16T10:07:56;9.40;99.90
1538;DHT22;12022;52.266;10.522;2023-03-16T10:10:39;9.40;99.90
1538;DHT22;12022;52.266;10.522;2023-03-16T10:16:31;9.40;99.90
1538;DHT22;12022;52.266;10.522;2023-03-16T10:19:13;9.50;99.90
1538;DHT22;12022;52.266;10.522;2023-03-16T10:21:42;9.40;99.90
1538;DHT22;12022;52.266;10.522;2023-03-16T10:27:30;9.60;99.90
1538;DHT22;12022;52.266;10.522;2023-03-16T10:32:54;9.70;99.90
1538;DHT22;12022;52.266;10.522;2023-03-16T10:38:00;9.80;99.90
1538;DHT22;12022;52.266;10.522;2023-03-16T10:40:38;9.70;99.90
1538;DHT22;12022;52.266;10.522;2023-03-16T10:43:11;9.60;99.90
1538;DHT22;12022;52.266;10.522;2023-03-16T10:45:41;9.60;99.90
1538;DHT22;12022;52.266;10.522;2023-03-16T10:48:18;9.70;99.90
1538;DHT22;12022;52.266;10.522;2023-03-16T10:50:56;9.50;99.90
1538;DHT22;12022;52.266;10.522;2023-03-16T10:53:29;9.70;99.90
1538;DHT22;12022;52.266;10.522;2023-03-16T10:56:10;9.50;99.90
1538;DHT22;12022;52.266;10.522;2023-03-16T10:58:41;9.50;99.90
1538;DHT22;12022;52.266;10.522;2023-03-16T11:01:24;9.50;99.90
1538;DHT22;12022;52.266;10.522;2023-03-16T11:03:54;9.50;99.90
1538;DHT22;12022;52.266;10.522;2023-03-16T11:06:24;9.50;99.90
1538;DHT22;12022;52.266;10.522;2023-03-16T11:08:52;9.50;99.90
1538;DHT22;12022;52.266;10.522;2023-03-16T11:11:26;9.50;99.90
1538;DHT22;12022;52.266;10.522;2023-03-16T11:14:10;9.50;99.90
1538;DHT22;12022;52.266;10.522;2023-03-16T11:16:49;9.50;99.90
1538;DHT22;12022;52.266;10.522;2023-03-16T11:19:22;9.50;99.90
1538;DHT22;12022;52.266;10.522;2023-03-16T11:21:57;9.60;99.90
1538;DHT22;12022;52.266;10.522;2023-03-16T11:28:08;9.50;99.90
1538;DHT22;12022;52.266;10.522;2023-03-16T11:30:55;9.60;99.90
1538;DHT22;12022;52.266;10.522;2023-03-16T11:33:33;9.60;99.90
1538;DHT22;12022;52.266;10.522;2023-03-16T11:39:23;9.70;99.90
1538;DHT22;12022;52.266;10.522;2023-03-16T12:04:30;10.90;99.90
1538;DHT22;12022;52.266;10.522;2023-03-16T12:09:45;11.10;99.90
1538;DHT22;12022;52.266;10.522;2023-03-16T12:12:38;11.00;99.10
1538;DHT22;12022;52.266;10.522;2023-03-16T12:15:39;11.00;99.90
1538;DHT22;12022;52.266;10.522;2023-03-16T12:18:20;11.00;99.90
1538;DHT22;12022;52.266;10.522;2023-03-16T12:20:53;11.00;99.90
1538;DHT22;12022;52.266;10.522;2023-03-16T12:23:42;10.80;99.90
1538;DHT22;12022;52.266;10.522;2023-03-16T12:26:09;10.80;99.90
1538;DHT22;12022;52.266;10.522;2023-03-16T12:28:40;10.70;99.90
1538;DHT22;12022;52.266;10.522;2023-03-16T12:36:50;10.50;99.90
1538;DHT22;12022;52.266;10.522;2023-03-16T12:45:02;10.40;99.90
1538;DHT22;12022;52.266;10.522;2023-03-16T12:50:21;10.40;99.90
1538;DHT22;12022;52.266;10.522;2023-03-16T12:52:51;10.30;99.90
1538;DHT22;12022;52.266;10.522;2023-03-16T12:58:03;10.40;99.90
1538;DHT22;12022;52.266;10.522;2023-03-16T13:00:39;10.40;99.20
1538;DHT22;12022;52.266;10.522;2023-03-16T13:03:18;10.50;98.60
1538;DHT22;12022;52.266;10.522;2023-03-16T13:05:50;10.60;99.90
1538;DHT22;12022;52.266;10.522;2023-03-16T13:08:19;10.70;99.90
1538;DHT22;12022;52.266;10.522;2023-03-16T13:11:10;11.00;99.90
1538;DHT22;12022;52.266;10.522;2023-03-16T13:13:52;10.90;99.90
1538;DHT22;12022;52.266;10.522;2023-03-16T13:16:32;11.00;99.90
1538;DHT22;12022;52.266;10.522;2023-03-16T13:19:25;11.20;99.90
1538;DHT22;12022;52.266;10.522;2023-03-16T13:22:01;11.30;98.70
1538;DHT22;12022;52.266;10.522;2023-03-16T13:24:37;11.40;99.90
1538;DHT22;12022;52.266;10.522;2023-03-16T13:27:20;11.50;99.90
1538;DHT22;12022;52.266;10.522;2023-03-16T13:29:57;11.60;99.50
1538;DHT22;12022;52.266;10.522;2023-03-16T13:32:26;11.50;99.90
1538;DHT22;12022;52.266;10.522;2023-03-16T13:34:57;11.60;99.90
1538;DHT22;12022;52.266;10.522;2023-03-16T13:37:28;11.70;99.90
1538;DHT22;12022;52.266;10.522;2023-03-16T13:39:57;11.70;99.90
1538;DHT22;12022;52.266;10.522;2023-03-16T13:42:29;12.00;98.60
1538;DHT22;12022;52.266;10.522;2023-03-16T13:45:11;11.80;99.90
1538;DHT22;12022;52.266;10.522;2023-03-16T13:47:43;11.70;99.90
1538;DHT22;12022;52.266;10.522;2023-03-16T13:50:13;11.80;99.90
1538;DHT22;12022;52.266;10.522;2023-03-16T13:52:41;11.60;99.90
1538;DHT22;12022;52.266;10.522;2023-03-16T13:55:17;11.60;99.90
1538;DHT22;12022;52.266;10.522;2023-03-16T13:57:48;11.50;99.20
1538;DHT22;12022;52.266;10.522;2023-03-16T14:00:26;11.50;99.90
1538;DHT22;12022;52.266;10.522;2023-03-16T14:02:56;11.50;99.90
1538;DHT22;12022;52.266;10.522;2023-03-16T14:05:31;11.50;99.90
1538;DHT22;12022;52.266;10.522;2023-03-16T14:07:59;11.60;99.90
1538;DHT22;12022;52.266;10.522;2023-03-16T14:10:31;11.70;99.40
1538;DHT22;12022;52.266;10.522;2023-03-16T14:13:23;11.80;99.90
1538;DHT22;12022;52.266;10.522;2023-03-16T14:16:17;11.90;99.20
1538;DHT22;12022;52.266;10.522;2023-03-16T14:19:05;12.00;99.90
1538;DHT22;12022;52.266;10.522;2023-03-16T14:21:34;12.10;99.90
1538;DHT22;12022;52.266;10.522;2023-03-16T14:24:06;12.30;99.90
1538;DHT22;12022;52.266;10.522;2023-03-16T14:26:42;12.50;99.90
1538;DHT22;12022;52.266;10.522;2023-03-16T14:29:29;12.60;99.90
1538;DHT22;12022;52.266;10.522;2023-03-16T14:32:29;12.80;99.90
1538;DHT22;12022;52.266;10.522;2023-03-16T14:35:15;12.80;99.50
1538;DHT22;12022;52.266;10.522;2023-03-16T14:37:43;12.80;99.90
1538;DHT22;12022;52.266;10.522;2023-03-16T14:40:29;12.80;99.90
1538;DHT22;12022;52.266;10.522;2023-03-16T14:43:01;12.80;99.90
1538;DHT22;12022;52.266;10.522;2023-03-16T14:45:32;12.70;97.20
1538;DHT22;12022;52.266;10.522;2023-03-16T14:48:06;12.60;99.90
1538;DHT22;12022;52.266;10.522;2023-03-16T14:50:36;12.50;99.90
1538;DHT22;12022;52.266;10.522;2023-03-16T14:53:03;12.70;99.90
1538;DHT22;12022;52.266;10.522;2023-03-16T14:55:30;12.70;99.90
1538;DHT22;12022;52.266;10.522;2023-03-16T14:57:57;12.80;99.90
1538;DHT22;12022;52.266;10.522;2023-03-16T15:00:24;13.00;99.90
1538;DHT22;12022;52.266;10.522;2023-03-16T15:02:59;12.80;99.90
1538;DHT22;12022;52.266;10.522;2023-03-16T15:05:37;12.80;99.90
1538;DHT22;12022;52.266;10.522;2023-03-16T15:08:06;13.00;99.80
1538;DHT22;12022;52.266;10.522;2023-03-16T15:10:37;12.80;99.90
1538;DHT22;12022;52.266;10.522;2023-03-16T15:13:13;12.90;99.90
1538;DHT22;12022;52.266;10.522;2023-03-16T15:16:01;12.90;99.90
1538;DHT22;12022;52.266;10.522;2023-03-16T15:18:32;12.70;99.90
1538;DHT22;12022;52.266;10.522;2023-03-16T15:21:00;12.60;99.90
1538;DHT22;12022;52.266;10.522;2023-03-16T15:23:28;12.60;99.90
1538;DHT22;12022;52.266;10.522;2023-03-16T15:25:56;12.50;99.90
1538;DHT22;12022;52.266;10.522;2023-03-16T15:28:28;12.40;99.90
1538;DHT22;12022;52.266;10.522;2023-03-16T15:30:58;12.40;99.90
1538;DHT22;12022;52.266;10.522;2023-03-16T15:33:25;12.30;99.90
1538;DHT22;12022;52.266;10.522;2023-03-16T15:35:56;12.30;99.90
1538;DHT22;12022;52.266;10.522;2023-03-16T15:38:29;12.30;99.90
1538;DHT22;12022;52.266;10.522;2023-03-16T15:40:58;12.30;99.90
1538;DHT22;12022;52.266;10.522;2023-03-16T15:43:28;12.30;99.90
1538;DHT22;12022;52.266;10.522;2023-03-16T15:45:56;12.40;99.90
1538;DHT22;12022;52.266;10.522;2023-03-16T15:48:24;12.40;99.90
1538;DHT22;12022;52.266;10.522;2023-03-16T15:53:57;12.40;99.90
1538;DHT22;12022;52.266;10.522;2023-03-16T15:56:29;12.30;99.90
1538;DHT22;12022;52.266;10.522;2023-03-16T15:59:01;12.30;99.90
1538;DHT22;12022;52.266;10.522;2023-03-16T16:01:33;12.50;99.90
1538;DHT22;12022;52.266;10.522;2023-03-16T16:04:15;12.30;99.90
1538;DHT22;12022;52.266;10.522;2023-03-16T16:06:46;12.20;99.90
1538;DHT22;12022;52.266;10.522;2023-03-16T16:09:15;12.30;99.90
1538;DHT22;12022;52.266;10.522;2023-03-16T16:11:43;12.10;99.90
1538;DHT22;12022;52.266;10.522;2023-03-16T16:14:15;12.00;99.90
1538;DHT22;12022;52.266;10.522;2023-03-16T16:16:43;11.90;99.90
1538;DHT22;12022;52.266;10.522;2023-03-16T16:19:15;11.80;99.90
1538;DHT22;12022;52.266;10.522;2023-03-16T16:21:43;11.70;99.90
1538;DHT22;12022;52.266;10.522;2023-03-16T16:24:10;11.60;99.90
1538;DHT22;12022;52.266;10.522;2023-03-16T16:26:40;11.50;99.90
1538;DHT22;12022;52.266;10.522;2023-03-16T16:29:22;11.40;99.90
1538;DHT22;12022;52.266;10.522;2023-03-16T16:31:49;11.50;99.90
1538;DHT22;12022;52.266;10.522;2023-03-16T16:34:21;11.20;99.90
1538;DHT22;12022;52.266;10.522;2023-03-16T16:36:50;11.30;99.90
1538;DHT22;12022;52.266;10.522;2023-03-16T16:39:17;11.10;99.90
1538;DHT22;12022;52.266;10.522;2023-03-16T16:41:45;11.10;99.90
1538;DHT22;12022;52.266;10.522;2023-03-16T16:44:25;11.00;99.90
1538;DHT22;12022;52.266;10.522;2023-03-16T16:46:53;10.90;99.90
1538;DHT22;12022;52.266;10.522;2023-03-16T16:49:26;10.80;99.90
1538;DHT22;12022;52.266;10.522;2023-03-16T16:51:54;10.90;99.90
1538;DHT22;12022;52.266;10.522;2023-03-16T16:54:28;10.60;99.90
1538;DHT22;12022;52.266;10.522;2023-03-16T16:56:56;10.50;99.90
1538;DHT22;12022;52.266;10.522;2023-03-16T16:59:31;10.40;99.90
1538;DHT22;12022;52.266;10.522;2023-03-16T17:02:00;10.30;99.90
1538;DHT22;12022;52.266;10.522;2023-03-16T17:04:28;10.20;99.90
1538;DHT22;12022;52.266;10.522;2023-03-16T17:06:57;10.10;99.90
1538;DHT22;12022;52.266;10.522;2023-03-16T17:09:27;10.10;99.90
1538;DHT22;12022;52.266;10.522;2023-03-16T17:11:57;9.90;99.90
1538;DHT22;12022;52.266;10.522;2023-03-16T17:14:25;9.80;99.90
1538;DHT22;12022;52.266;10.522;2023-03-16T17:16:59;10.10;99.90
1538;DHT22;12022;52.266;10.522;2023-03-16T17:19:27;9.80;99.90
1538;DHT22;12022;52.266;10.522;2023-03-16T17:21:56;9.70;99.90
1538;DHT22;12022;52.266;10.522;2023-03-16T17:24:23;9.60;99.90
1538;DHT22;12022;52.266;10.522;2023-03-16T17:26:52;9.60;99.90
1538;DHT22;12022;52.266;10.522;2023-03-16T17:29:31;9.60;99.90
1538;DHT22;12022;52.266;10.522;2023-03-16T17:32:00;9.50;99.90
1538;DHT22;12022;52.266;10.522;2023-03-16T17:34:30;9.80;99.90
1538;DHT22;12022;52.266;10.522;2023-03-16T17:36:58;9.50;99.90
1538;DHT22;12022;52.266;10.522;2023-03-16T17:39:27;9.60;99.90
1538;DHT22;12022;52.266;10.522;2023-03-16T17:41:59;9.40;99.90
1538;DHT22;12022;52.266;10.522;2023-03-16T17:44:31;9.40;99.90
1538;DHT22;12022;52.266;10.522;2023-03-16T17:46:59;9.30;99.90
1538;DHT22;12022;52.266;10.522;2023-03-16T17:49:26;9.30;99.90
1538;DHT22;12022;52.266;10.522;2023-03-16T17:51:54;9.30;99.90
1538;DHT22;12022;52.266;10.522;2023-03-16T17:54:48;9.20;99.90
1538;DHT22;12022;52.266;10.522;2023-03-16T17:58:04;9.10;99.90
1538;DHT22;12022;52.266;10.522;2023-03-16T18:01:31;9.10;99.90
1538;DHT22;12022;52.266;10.522;2023-03-16T18:04:47;9.00;99.90
1538;DHT22;12022;52.266;10.522;2023-03-16T18:11:44;8.90;99.90